Página principal
METAR-TAF:

METAR-TAF

Aeroportos :

Tenerife Sul, Espanha

Aeroporto de Tenerife Sul

latitude: 28-03N, longitude: 016-34W, altura: 64 m

Observação actual do tempo

O boletim foi feito há 15 minutos, às 07:00 UTC
Vento 6 kt de nordeste
Temperatura 15°C
Humidade 63%
Pressão 1020 hPa
Visibilidade 10 km ou mais
Poucas nuvensa uma altura de 3000 ft

METAR: GCTS 180700Z 04006KT 9999 FEW030 15/08 Q1020 NOSIG

Hora: 07:15 (07:15 UTC)

Previsão

O boletim foi feito há 5 horas e 15 minutos, às 02:00 UTC
Previsão válida de 18 às 03 UTC a 19 às 03 UTC
Vento 14 kt de es-nordeste
Visibilidade 10 km ou mais
sem nuvens abaixo de 1500 metros e sem cumulonimbus
Tornando-se
de 18 às 19 UTC a 18 às 21 UTC
Vento 7 kt de nor-noroeste

TAF: GCTS 180200Z 1803/1903 07014KT CAVOK TX23/1815Z TN14/1806Z BECMG 1819/1821 34007KT

Observações e previsões do tempo de mais de 4000 aeroportos (mensagens METAR e TAF).

As estações disponíveis são os pontos amarelos e vermelhos sobre o mapa.

Mova o rato sobre o mapa para ver o nome da estação.

Depois clique no ponto para visualizar as observações e previsões meteorológicas.

Para alterar o mapa : clique nos botões verdes com uma cruz preta para aumentar o zoom; no botão verde com uma pitada de zoom; ou nas setas verdes para mapas adjacentes.


METAR-TAF: